AHS9923 VNLK-VNLK
Flight info
| Callsign | AHS9923 |
|---|---|
| Flight time | 0h 25m |
| Altitude | 30000 |
| Route | VFR |
| Aircraft | TBM9/L-SDFGRWY/S |
Departure
| Time | 2025-07-29 14:48 |
|---|---|
| Airport | Tenzing-Hillary Airport (VNLK) |
Arrival
| Time | 2025-07-29 15:13 |
|---|---|
| Airport | Tenzing-Hillary Airport (VNLK) |
| Time | Latitude | Longitude | Altitude | Speed | Heading |
|---|---|---|---|---|---|
| 2025-07-29 14:40 | 27.68743 | 86.73192 | 9361 ft | 0 kts | 240° |
| 2025-07-29 14:45 | 27.68761 | 86.73170 | 9361 ft | 3 kts | 326° |
| 2025-07-29 14:45 | 27.68750 | 86.73107 | 9340 ft | 22 kts | 242° |
| 2025-07-29 14:46 | 27.68168 | 86.71697 | 9206 ft | 148 kts | 262° |
| 2025-07-29 14:46 | 27.69495 | 86.70120 | 10177 ft | 153 kts | 2° |
| 2025-07-29 14:47 | 27.71444 | 86.70877 | 11394 ft | 154 kts | 16° |
| 2025-07-29 14:48 | 27.74622 | 86.71141 | 13251 ft | 152 kts | 358° |
| 2025-07-29 14:48 | 27.76464 | 86.71954 | 14494 ft | 146 kts | 44° |
| 2025-07-29 14:49 | 27.78373 | 86.72113 | 15712 ft | 147 kts | 343° |
| 2025-07-29 14:49 | 27.80298 | 86.72578 | 16960 ft | 146 kts | 27° |
| 2025-07-29 14:49 | 27.81198 | 86.73117 | 17589 ft | 147 kts | 29° |
| 2025-07-29 14:50 | 27.83003 | 86.74237 | 18844 ft | 149 kts | 29° |
| 2025-07-29 14:50 | 27.84134 | 86.76076 | 20099 ft | 146 kts | 75° |
| 2025-07-29 14:51 | 27.85015 | 86.78007 | 21482 ft | 134 kts | 46° |
| 2025-07-29 14:52 | 27.86802 | 86.80130 | 23289 ft | 123 kts | 45° |
| 2025-07-29 14:52 | 27.87956 | 86.81555 | 24297 ft | 122 kts | 41° |
| 2025-07-29 14:53 | 27.89720 | 86.81755 | 25064 ft | 140 kts | 336° |
| 2025-07-29 14:54 | 27.95645 | 86.82039 | 28044 ft | 132 kts | 25° |
| 2025-07-29 14:57 | 27.99747 | 86.89047 | 29867 ft | 138 kts | 102° |
| 2025-07-29 14:58 | 27.99513 | 86.96516 | 29801 ft | 145 kts | 102° |
| 2025-07-29 15:01 | 27.97206 | 86.90607 | 29869 ft | 160 kts | 295° |
| 2025-07-29 15:02 | 27.96339 | 86.82641 | 27590 ft | 165 kts | 209° |
| 2025-07-29 15:04 | 27.90956 | 86.80720 | 24495 ft | 167 kts | 150° |
| 2025-07-29 15:04 | 27.90044 | 86.81513 | 23879 ft | 164 kts | 137° |
| 2025-07-29 15:05 | 27.87116 | 86.80711 | 22021 ft | 162 kts | 226° |
| 2025-07-29 15:05 | 27.86373 | 86.79768 | 21401 ft | 160 kts | 228° |
| 2025-07-29 15:05 | 27.84928 | 86.77903 | 20154 ft | 156 kts | 227° |
| 2025-07-29 15:06 | 27.83901 | 86.75805 | 18908 ft | 154 kts | 253° |
| 2025-07-29 15:06 | 27.82596 | 86.74056 | 17663 ft | 148 kts | 209° |
| 2025-07-29 15:07 | 27.80802 | 86.72965 | 16417 ft | 145 kts | 206° |
| 2025-07-29 15:07 | 27.79030 | 86.71961 | 15168 ft | 143 kts | 191° |
| 2025-07-29 15:08 | 27.76178 | 86.71842 | 13294 ft | 141 kts | 213° |
| 2025-07-29 15:09 | 27.74510 | 86.71004 | 12061 ft | 134 kts | 174° |
| 2025-07-29 15:09 | 27.73597 | 86.71130 | 11444 ft | 131 kts | 172° |
| 2025-07-29 15:09 | 27.71891 | 86.71258 | 10282 ft | 127 kts | 177° |
| 2025-07-29 15:10 | 27.70359 | 86.71321 | 9980 ft | 101 kts | 177° |
| 2025-07-29 15:10 | 27.69004 | 86.71425 | 9996 ft | 97 kts | 163° |
| 2025-07-29 15:11 | 27.67682 | 86.71907 | 9756 ft | 107 kts | 163° |
| 2025-07-29 15:12 | 27.67181 | 86.70298 | 9244 ft | 121 kts | 4° |
| 2025-07-29 15:12 | 27.68120 | 86.71874 | 8993 ft | 117 kts | 65° |
| 2025-07-29 15:13 | 27.68709 | 86.72989 | 9287 ft | 38 kts | 74° |
| 2025-07-29 15:13 | 27.68762 | 86.73122 | 9349 ft | 0 kts | 48° |
| 2025-07-29 15:13 | 27.68766 | 86.73128 | 9352 ft | 2 kts | 48° |
| 2025-07-29 15:14 | 27.68737 | 86.73198 | 9361 ft | 0 kts | 141° |